AEE2SF LGAV-LBSF
Flight info
| Callsign | AEE2SF |
|---|---|
| Flight time | 0h 52m |
| Altitude | 34000 |
| Route | KRO G33 NEVRA UG33 KOROS UN133 PEREN UL863 EVIVI Y94 VANET |
| Aircraft | A21N/M-SDE2FGIJ1RWY/SB1 |
Departure
| Time | 2026-05-07 15:26 |
|---|---|
| Airport | Athens Eleftherios Venizelos International Airport (LGAV) |
Arrival
| Time | 2026-05-07 16:19 |
|---|---|
| Airport | Sofia Airport (LBSF) |
| Time | Latitude | Longitude | Altitude | Speed | Heading |
|---|---|---|---|---|---|
| 2026-05-07 15:04 | 37.94231 | 23.95553 | 302 ft | 0 kts | 46° |
| 2026-05-07 15:15 | 37.94228 | 23.95550 | 298 ft | 1 kts | 47° |
| 2026-05-07 15:15 | 37.94223 | 23.95542 | 301 ft | 1 kts | 47° |
| 2026-05-07 15:16 | 37.94218 | 23.95535 | 300 ft | 1 kts | 47° |
| 2026-05-07 15:16 | 37.94212 | 23.95528 | 299 ft | 1 kts | 57° |
| 2026-05-07 15:16 | 37.94208 | 23.95519 | 301 ft | 1 kts | 68° |
| 2026-05-07 15:16 | 37.94204 | 23.95510 | 300 ft | 2 kts | 79° |
| 2026-05-07 15:17 | 37.94202 | 23.95491 | 300 ft | 2 kts | 92° |
| 2026-05-07 15:17 | 37.94203 | 23.95472 | 301 ft | 2 kts | 106° |
| 2026-05-07 15:17 | 37.94207 | 23.95459 | 300 ft | 1 kts | 117° |
| 2026-05-07 15:17 | 37.94210 | 23.95450 | 298 ft | 1 kts | 124° |
| 2026-05-07 15:18 | 37.94211 | 23.95448 | 301 ft | 0 kts | 123° |
| 2026-05-07 15:20 | 37.94205 | 23.95460 | 300 ft | 6 kts | 123° |
| 2026-05-07 15:21 | 37.94158 | 23.95500 | 299 ft | 12 kts | 149° |
| 2026-05-07 15:21 | 37.94136 | 23.95589 | 298 ft | 9 kts | 82° |
| 2026-05-07 15:21 | 37.94190 | 23.95652 | 300 ft | 14 kts | 36° |
| 2026-05-07 15:21 | 37.94294 | 23.95749 | 301 ft | 22 kts | 37° |
| 2026-05-07 15:22 | 37.94367 | 23.95853 | 303 ft | 11 kts | 99° |
| 2026-05-07 15:22 | 37.94358 | 23.95951 | 302 ft | 12 kts | 57° |
| 2026-05-07 15:22 | 37.94435 | 23.96026 | 304 ft | 16 kts | 37° |
| 2026-05-07 15:22 | 37.94532 | 23.96118 | 304 ft | 19 kts | 37° |
| 2026-05-07 15:23 | 37.94645 | 23.96227 | 305 ft | 22 kts | 37° |
| 2026-05-07 15:23 | 37.94777 | 23.96350 | 306 ft | 25 kts | 36° |
| 2026-05-07 15:23 | 37.94920 | 23.96488 | 308 ft | 26 kts | 37° |
| 2026-05-07 15:23 | 37.95054 | 23.96615 | 310 ft | 23 kts | 37° |
| 2026-05-07 15:24 | 37.95181 | 23.96736 | 312 ft | 17 kts | 37° |
| 2026-05-07 15:24 | 37.95278 | 23.96829 | 312 ft | 10 kts | 37° |
| 2026-05-07 15:24 | 37.95294 | 23.96910 | 313 ft | 11 kts | 121° |
| 2026-05-07 15:24 | 37.95236 | 23.96998 | 314 ft | 15 kts | 130° |
| 2026-05-07 15:25 | 37.95177 | 23.97004 | 314 ft | 8 kts | 216° |
| 2026-05-07 15:25 | 37.95165 | 23.96992 | 314 ft | 4 kts | 217° |
| 2026-05-07 15:25 | 37.94989 | 23.96825 | 312 ft | 70 kts | 217° |
| 2026-05-07 15:25 | 37.94404 | 23.96272 | 306 ft | 136 kts | 217° |
| 2026-05-07 15:26 | 37.93506 | 23.95426 | 380 ft | 177 kts | 216° |
| 2026-05-07 15:26 | 37.92523 | 23.94513 | 1167 ft | 176 kts | 214° |
| 2026-05-07 15:26 | 37.91462 | 23.93688 | 1876 ft | 182 kts | 208° |
| 2026-05-07 15:26 | 37.90302 | 23.92917 | 2497 ft | 197 kts | 207° |
| 2026-05-07 15:27 | 37.89001 | 23.92086 | 2919 ft | 221 kts | 207° |
| 2026-05-07 15:27 | 37.87567 | 23.91155 | 3567 ft | 239 kts | 207° |
| 2026-05-07 15:27 | 37.85929 | 23.90487 | 4319 ft | 258 kts | 184° |
| 2026-05-07 15:27 | 37.84136 | 23.90919 | 5224 ft | 270 kts | 154° |
| 2026-05-07 15:28 | 37.82676 | 23.92424 | 6235 ft | 277 kts | 126° |
| 2026-05-07 15:28 | 37.81877 | 23.94657 | 7175 ft | 285 kts | 99° |
| 2026-05-07 15:28 | 37.81947 | 23.97162 | 8073 ft | 291 kts | 72° |
| 2026-05-07 15:28 | 37.82501 | 23.98703 | 8740 ft | 291 kts | 53° |
| 2026-05-07 15:29 | 37.84484 | 24.00960 | 10055 ft | 294 kts | 30° |
| 2026-05-07 15:29 | 37.86251 | 24.02352 | 10753 ft | 309 kts | 29° |
| 2026-05-07 15:29 | 37.88155 | 24.03841 | 11114 ft | 334 kts | 29° |
| 2026-05-07 15:29 | 37.90184 | 24.05442 | 11632 ft | 350 kts | 30° |
| 2026-05-07 15:30 | 37.92256 | 24.07096 | 12450 ft | 355 kts | 29° |
| 2026-05-07 15:30 | 37.94360 | 24.08785 | 13297 ft | 360 kts | 29° |
| 2026-05-07 15:30 | 37.96490 | 24.10497 | 14104 ft | 366 kts | 29° |
| 2026-05-07 15:30 | 37.97947 | 24.11668 | 14604 ft | 369 kts | 29° |
| 2026-05-07 15:31 | 38.00135 | 24.13421 | 15342 ft | 374 kts | 28° |
| 2026-05-07 15:31 | 38.02346 | 24.15191 | 16064 ft | 379 kts | 28° |
| 2026-05-07 15:31 | 38.04585 | 24.16982 | 16774 ft | 384 kts | 28° |
| 2026-05-07 15:31 | 38.06856 | 24.18799 | 17243 ft | 389 kts | 28° |
| 2026-05-07 15:32 | 38.09154 | 24.20639 | 18017 ft | 392 kts | 28° |
| 2026-05-07 15:32 | 38.11465 | 24.22492 | 18714 ft | 396 kts | 28° |
| 2026-05-07 15:32 | 38.13815 | 24.24375 | 19390 ft | 399 kts | 28° |
| 2026-05-07 15:32 | 38.16034 | 24.26155 | 20065 ft | 400 kts | 28° |
| 2026-05-07 15:33 | 38.18457 | 24.27892 | 20687 ft | 399 kts | 18° |
| 2026-05-07 15:33 | 38.21121 | 24.28768 | 21310 ft | 394 kts | 1° |
| 2026-05-07 15:33 | 38.23830 | 24.28643 | 21924 ft | 388 kts | 345° |
| 2026-05-07 15:33 | 38.26490 | 24.27979 | 22531 ft | 391 kts | 345° |
| 2026-05-07 15:34 | 38.29166 | 24.27300 | 23158 ft | 394 kts | 345° |
| 2026-05-07 15:34 | 38.31864 | 24.26615 | 23749 ft | 397 kts | 345° |
| 2026-05-07 15:34 | 38.34542 | 24.25940 | 24284 ft | 399 kts | 345° |
| 2026-05-07 15:34 | 38.37270 | 24.25257 | 24834 ft | 400 kts | 345° |
| 2026-05-07 15:35 | 38.40007 | 24.24573 | 25366 ft | 401 kts | 345° |
| 2026-05-07 15:35 | 38.42752 | 24.23886 | 25861 ft | 403 kts | 344° |
| 2026-05-07 15:35 | 38.45514 | 24.23194 | 26347 ft | 405 kts | 344° |
| 2026-05-07 15:35 | 38.48287 | 24.22497 | 26828 ft | 407 kts | 344° |
| 2026-05-07 15:36 | 38.51074 | 24.21795 | 27289 ft | 410 kts | 344° |
| 2026-05-07 15:36 | 38.53879 | 24.21087 | 27709 ft | 412 kts | 344° |
| 2026-05-07 15:36 | 38.56699 | 24.20374 | 28149 ft | 414 kts | 344° |
| 2026-05-07 15:36 | 38.59532 | 24.19657 | 28543 ft | 417 kts | 344° |
| 2026-05-07 15:37 | 38.62388 | 24.18934 | 28922 ft | 419 kts | 344° |
| 2026-05-07 15:37 | 38.65256 | 24.18206 | 29307 ft | 421 kts | 344° |
| 2026-05-07 15:37 | 38.68141 | 24.17474 | 29647 ft | 424 kts | 344° |
| 2026-05-07 15:37 | 38.71045 | 24.16736 | 29981 ft | 427 kts | 344° |
| 2026-05-07 15:38 | 38.73968 | 24.15993 | 30319 ft | 429 kts | 344° |
| 2026-05-07 15:38 | 38.76901 | 24.15248 | 30654 ft | 431 kts | 344° |
| 2026-05-07 15:38 | 38.79845 | 24.14500 | 30985 ft | 432 kts | 344° |
| 2026-05-07 15:38 | 38.82805 | 24.13747 | 31347 ft | 433 kts | 344° |
| 2026-05-07 15:39 | 38.85752 | 24.12998 | 31775 ft | 432 kts | 343° |
| 2026-05-07 15:39 | 38.88698 | 24.12249 | 32240 ft | 430 kts | 343° |
| 2026-05-07 15:39 | 38.91626 | 24.11503 | 32696 ft | 428 kts | 343° |
| 2026-05-07 15:39 | 38.94541 | 24.10760 | 33124 ft | 426 kts | 343° |
| 2026-05-07 15:40 | 38.97440 | 24.10020 | 33555 ft | 424 kts | 343° |
| 2026-05-07 15:40 | 39.00295 | 24.09289 | 33966 ft | 423 kts | 342° |
| 2026-05-07 15:40 | 39.03172 | 24.08552 | 34111 ft | 421 kts | 342° |
| 2026-05-07 15:40 | 39.06046 | 24.07813 | 34109 ft | 421 kts | 343° |
| 2026-05-07 15:41 | 39.11797 | 24.06332 | 34108 ft | 423 kts | 343° |
| 2026-05-07 15:41 | 39.17584 | 24.04839 | 34105 ft | 425 kts | 343° |
| 2026-05-07 15:42 | 39.23395 | 24.03338 | 34103 ft | 427 kts | 343° |
| 2026-05-07 15:42 | 39.29232 | 24.01828 | 34112 ft | 429 kts | 343° |
| 2026-05-07 15:43 | 39.35103 | 24.00308 | 34116 ft | 431 kts | 343° |
| 2026-05-07 15:43 | 39.41002 | 23.98779 | 34114 ft | 433 kts | 343° |
| 2026-05-07 15:44 | 39.46926 | 23.97242 | 34114 ft | 435 kts | 344° |
| 2026-05-07 15:44 | 39.52873 | 23.95696 | 34111 ft | 437 kts | 344° |
| 2026-05-07 15:45 | 39.58845 | 23.94141 | 34123 ft | 438 kts | 344° |
| 2026-05-07 15:45 | 39.64830 | 23.92579 | 34116 ft | 440 kts | 344° |
| 2026-05-07 15:46 | 39.73843 | 23.90223 | 34110 ft | 442 kts | 344° |
| 2026-05-07 15:47 | 39.79880 | 23.88642 | 34108 ft | 443 kts | 344° |
| 2026-05-07 15:47 | 39.85926 | 23.87056 | 34111 ft | 444 kts | 345° |
| 2026-05-07 15:48 | 39.91989 | 23.85462 | 34110 ft | 445 kts | 345° |
| 2026-05-07 15:48 | 39.98064 | 23.83862 | 34109 ft | 446 kts | 345° |
| 2026-05-07 15:49 | 40.04160 | 23.82254 | 34108 ft | 447 kts | 345° |
| 2026-05-07 15:49 | 40.10269 | 23.80640 | 34112 ft | 449 kts | 345° |
| 2026-05-07 15:50 | 40.16357 | 23.79028 | 34112 ft | 450 kts | 345° |
| 2026-05-07 15:50 | 40.22542 | 23.77388 | 34110 ft | 451 kts | 345° |
| 2026-05-07 15:51 | 40.28659 | 23.75763 | 34103 ft | 452 kts | 345° |
| 2026-05-07 15:51 | 40.34823 | 23.74121 | 34111 ft | 453 kts | 345° |
| 2026-05-07 15:52 | 40.41010 | 23.72470 | 34105 ft | 454 kts | 345° |
| 2026-05-07 15:52 | 40.47222 | 23.70810 | 34107 ft | 456 kts | 345° |
| 2026-05-07 15:53 | 40.53444 | 23.69144 | 34103 ft | 457 kts | 345° |
| 2026-05-07 15:53 | 40.59688 | 23.67468 | 34111 ft | 458 kts | 345° |
| 2026-05-07 15:54 | 40.65948 | 23.65785 | 34115 ft | 460 kts | 346° |
| 2026-05-07 15:54 | 40.72236 | 23.64091 | 34120 ft | 461 kts | 346° |
| 2026-05-07 15:55 | 40.78530 | 23.62393 | 34123 ft | 463 kts | 346° |
| 2026-05-07 15:55 | 40.84842 | 23.60688 | 34124 ft | 463 kts | 346° |
| 2026-05-07 15:56 | 40.91142 | 23.58982 | 33931 ft | 461 kts | 346° |
| 2026-05-07 15:56 | 40.94279 | 23.58132 | 33662 ft | 460 kts | 346° |
| 2026-05-07 15:56 | 40.97417 | 23.57280 | 33396 ft | 460 kts | 346° |
| 2026-05-07 15:56 | 41.00557 | 23.56426 | 32870 ft | 463 kts | 346° |
| 2026-05-07 15:57 | 41.03724 | 23.55564 | 32024 ft | 466 kts | 346° |
| 2026-05-07 15:57 | 41.06914 | 23.54695 | 31041 ft | 470 kts | 346° |
| 2026-05-07 15:57 | 41.10101 | 23.53828 | 30375 ft | 465 kts | 346° |
| 2026-05-07 15:57 | 41.13237 | 23.52976 | 29958 ft | 453 kts | 346° |
| 2026-05-07 15:58 | 41.16292 | 23.52145 | 29675 ft | 448 kts | 345° |
| 2026-05-07 15:58 | 41.19353 | 23.51307 | 29199 ft | 449 kts | 345° |
| 2026-05-07 15:58 | 41.22401 | 23.50472 | 28665 ft | 445 kts | 345° |
| 2026-05-07 15:58 | 41.25415 | 23.49647 | 28157 ft | 438 kts | 345° |
| 2026-05-07 15:59 | 41.28373 | 23.48837 | 27651 ft | 430 kts | 345° |
| 2026-05-07 15:59 | 41.31277 | 23.48041 | 27152 ft | 422 kts | 345° |
| 2026-05-07 15:59 | 41.34126 | 23.47260 | 26663 ft | 415 kts | 345° |
| 2026-05-07 15:59 | 41.36930 | 23.46491 | 26180 ft | 408 kts | 345° |
| 2026-05-07 16:00 | 41.39724 | 23.45872 | 25854 ft | 409 kts | 349° |
| 2026-05-07 16:00 | 41.42522 | 23.45488 | 25619 ft | 410 kts | 353° |
| 2026-05-07 16:00 | 41.45381 | 23.45300 | 24939 ft | 412 kts | 354° |
| 2026-05-07 16:00 | 41.48255 | 23.45159 | 24042 ft | 414 kts | 354° |
| 2026-05-07 16:01 | 41.51124 | 23.45018 | 23552 ft | 411 kts | 354° |
| 2026-05-07 16:01 | 41.53974 | 23.44876 | 23192 ft | 409 kts | 354° |
| 2026-05-07 16:01 | 41.56808 | 23.44733 | 22717 ft | 405 kts | 354° |
| 2026-05-07 16:01 | 41.59602 | 23.44594 | 22230 ft | 399 kts | 354° |
| 2026-05-07 16:02 | 41.62350 | 23.44456 | 21741 ft | 391 kts | 354° |
| 2026-05-07 16:02 | 41.65038 | 23.44320 | 21283 ft | 384 kts | 354° |
| 2026-05-07 16:02 | 41.67685 | 23.44186 | 20833 ft | 377 kts | 354° |
| 2026-05-07 16:02 | 41.70289 | 23.44053 | 20368 ft | 371 kts | 354° |
| 2026-05-07 16:03 | 41.72851 | 23.43921 | 19914 ft | 366 kts | 354° |
| 2026-05-07 16:03 | 41.75269 | 23.43797 | 19492 ft | 360 kts | 354° |
| 2026-05-07 16:03 | 41.77721 | 23.43671 | 19057 ft | 355 kts | 354° |
| 2026-05-07 16:03 | 41.80168 | 23.43544 | 18621 ft | 350 kts | 354° |
| 2026-05-07 16:04 | 41.82595 | 23.43420 | 18164 ft | 348 kts | 354° |
| 2026-05-07 16:04 | 41.85024 | 23.43296 | 17726 ft | 349 kts | 354° |
| 2026-05-07 16:04 | 41.87430 | 23.43175 | 17298 ft | 345 kts | 354° |
| 2026-05-07 16:04 | 41.89825 | 23.43055 | 16863 ft | 344 kts | 354° |
| 2026-05-07 16:05 | 41.92206 | 23.42935 | 16435 ft | 341 kts | 354° |
| 2026-05-07 16:05 | 41.94569 | 23.42817 | 16019 ft | 339 kts | 354° |
| 2026-05-07 16:05 | 41.96925 | 23.42697 | 15602 ft | 340 kts | 354° |
| 2026-05-07 16:05 | 41.99280 | 23.42577 | 15171 ft | 335 kts | 354° |
| 2026-05-07 16:06 | 42.01605 | 23.42459 | 14756 ft | 335 kts | 354° |
| 2026-05-07 16:06 | 42.03930 | 23.42342 | 14335 ft | 333 kts | 354° |
| 2026-05-07 16:06 | 42.06240 | 23.42225 | 13918 ft | 331 kts | 354° |
| 2026-05-07 16:06 | 42.08534 | 23.42105 | 13473 ft | 329 kts | 354° |
| 2026-05-07 16:07 | 42.10821 | 23.41985 | 13068 ft | 328 kts | 354° |
| 2026-05-07 16:07 | 42.13094 | 23.41868 | 12660 ft | 326 kts | 354° |
| 2026-05-07 16:07 | 42.15354 | 23.41753 | 12260 ft | 324 kts | 354° |
| 2026-05-07 16:07 | 42.17597 | 23.41636 | 11855 ft | 323 kts | 354° |
| 2026-05-07 16:08 | 42.19843 | 23.41516 | 11464 ft | 322 kts | 355° |
| 2026-05-07 16:08 | 42.22078 | 23.41399 | 11067 ft | 320 kts | 355° |
| 2026-05-07 16:08 | 42.24291 | 23.41287 | 10667 ft | 317 kts | 355° |
| 2026-05-07 16:08 | 42.26477 | 23.41178 | 10482 ft | 309 kts | 355° |
| 2026-05-07 16:09 | 42.28585 | 23.41180 | 10280 ft | 300 kts | 4° |
| 2026-05-07 16:09 | 42.30585 | 23.41921 | 9966 ft | 298 kts | 22° |
| 2026-05-07 16:09 | 42.32393 | 23.43297 | 9807 ft | 299 kts | 29° |
| 2026-05-07 16:09 | 42.34176 | 23.44710 | 9669 ft | 301 kts | 28° |
| 2026-05-07 16:10 | 42.36016 | 23.46150 | 9344 ft | 301 kts | 28° |
| 2026-05-07 16:10 | 42.37800 | 23.47542 | 8992 ft | 298 kts | 28° |
| 2026-05-07 16:10 | 42.39610 | 23.48953 | 8640 ft | 294 kts | 28° |
| 2026-05-07 16:10 | 42.41365 | 23.50323 | 8298 ft | 289 kts | 28° |
| 2026-05-07 16:11 | 42.43066 | 23.51651 | 7976 ft | 284 kts | 29° |
| 2026-05-07 16:11 | 42.44759 | 23.52974 | 7648 ft | 279 kts | 29° |
| 2026-05-07 16:11 | 42.46427 | 23.54281 | 7314 ft | 275 kts | 29° |
| 2026-05-07 16:11 | 42.48070 | 23.55570 | 6993 ft | 271 kts | 29° |
| 2026-05-07 16:12 | 42.49691 | 23.56843 | 6667 ft | 268 kts | 29° |
| 2026-05-07 16:12 | 42.51298 | 23.58104 | 6350 ft | 266 kts | 30° |
| 2026-05-07 16:12 | 42.52889 | 23.59356 | 6029 ft | 262 kts | 30° |
| 2026-05-07 16:12 | 42.54452 | 23.60585 | 5790 ft | 255 kts | 30° |
| 2026-05-07 16:13 | 42.55952 | 23.61769 | 5681 ft | 244 kts | 30° |
| 2026-05-07 16:13 | 42.57398 | 23.62908 | 5560 ft | 241 kts | 30° |
| 2026-05-07 16:13 | 42.58863 | 23.64061 | 5430 ft | 243 kts | 29° |
| 2026-05-07 16:13 | 42.60423 | 23.64881 | 5314 ft | 241 kts | 11° |
| 2026-05-07 16:14 | 42.62092 | 23.65128 | 5048 ft | 242 kts | 3° |
| 2026-05-07 16:14 | 42.63756 | 23.65295 | 4749 ft | 238 kts | 4° |
| 2026-05-07 16:14 | 42.65381 | 23.65470 | 4469 ft | 232 kts | 3° |
| 2026-05-07 16:14 | 42.66918 | 23.65135 | 4308 ft | 217 kts | 332° |
| 2026-05-07 16:15 | 42.67979 | 23.63853 | 4206 ft | 197 kts | 299° |
| 2026-05-07 16:15 | 42.68394 | 23.62178 | 4089 ft | 180 kts | 277° |
| 2026-05-07 16:15 | 42.68519 | 23.60528 | 3977 ft | 173 kts | 271° |
| 2026-05-07 16:15 | 42.68607 | 23.58808 | 3958 ft | 184 kts | 273° |
| 2026-05-07 16:16 | 42.68715 | 23.57103 | 3730 ft | 176 kts | 272° |
| 2026-05-07 16:16 | 42.68813 | 23.55500 | 3496 ft | 165 kts | 272° |
| 2026-05-07 16:16 | 42.68900 | 23.54014 | 3281 ft | 151 kts | 273° |
| 2026-05-07 16:16 | 42.68984 | 23.52627 | 3072 ft | 148 kts | 274° |
| 2026-05-07 16:17 | 42.69068 | 23.51226 | 2862 ft | 148 kts | 275° |
| 2026-05-07 16:17 | 42.69152 | 23.49840 | 2656 ft | 147 kts | 275° |
| 2026-05-07 16:17 | 42.69234 | 23.48487 | 2461 ft | 144 kts | 276° |
| 2026-05-07 16:17 | 42.69317 | 23.47133 | 2271 ft | 143 kts | 276° |
| 2026-05-07 16:18 | 42.69399 | 23.45795 | 2075 ft | 141 kts | 276° |
| 2026-05-07 16:18 | 42.69475 | 23.44475 | 1873 ft | 140 kts | 276° |
| 2026-05-07 16:18 | 42.69559 | 23.43169 | 1757 ft | 132 kts | 276° |
| 2026-05-07 16:18 | 42.69623 | 23.42148 | 1748 ft | 71 kts | 275° |
| 2026-05-07 16:19 | 42.69621 | 23.41690 | 1743 ft | 35 kts | 253° |
| 2026-05-07 16:19 | 42.69587 | 23.41569 | 1747 ft | 13 kts | 245° |
| 2026-05-07 16:19 | 42.69573 | 23.41527 | 1748 ft | 0 kts | 245° |
| 2026-05-07 16:19 | 42.69554 | 23.41486 | 1744 ft | 10 kts | 227° |
| 2026-05-07 16:20 | 42.69472 | 23.41497 | 1747 ft | 15 kts | 145° |
| 2026-05-07 16:20 | 42.69359 | 23.41520 | 1744 ft | 19 kts | 185° |
| 2026-05-07 16:20 | 42.69227 | 23.41533 | 1748 ft | 21 kts | 164° |
| 2026-05-07 16:20 | 42.69157 | 23.41563 | 1748 ft | 2 kts | 161° |
| 2026-05-07 16:21 | 42.69126 | 23.41578 | 1748 ft | 7 kts | 160° |
| 2026-05-07 16:21 | 42.69066 | 23.41589 | 1748 ft | 10 kts | 195° |
| 2026-05-07 16:21 | 42.69040 | 23.41532 | 1747 ft | 5 kts | 257° |
| 2026-05-07 16:21 | 42.69036 | 23.41518 | 1749 ft | 0 kts | 252° |